Time;durP1;ratioP1;P1;durP2;ratioP2;P2;SDS_P1;SDS_P2;PMS_P1;PMS_P2;Temp;Humidity;BMP_temperature;BMP_pressure;BME280_temperature;BME280_humidity;BME280_pressure;Samples;Min_cycle;Max_cycle;Signal;HPM_P1;HPM_P2
2024/01/11 00:00:15;;;;;;;54.05;34.80;;;;;;;6.25;100.00;99232.47;5093857;28;20458;-46
2024/01/11 00:02:41;;;;;;;50.72;30.75;;;;;;;5.91;100.00;99235.91;5093704;28;20069;-46
2024/01/11 00:05:07;;;;;;;48.33;33.90;;;;;;;5.41;100.00;99234.84;5093756;28;20016;-46
2024/01/11 00:07:33;;;;;;;41.70;29.08;;;;;;;5.44;100.00;99239.75;5092373;28;20030;-46
2024/01/11 00:10:01;;;;;;;38.17;27.10;;;;;;;5.64;100.00;99229.13;5093671;28;20495;-46
2024/01/11 00:12:27;;;;;;;38.15;26.30;;;;;;;5.79;100.00;99238.81;5093572;28;20099;-45
2024/01/11 00:14:53;;;;;;;39.42;27.45;;;;;;;5.65;100.00;99228.94;5093406;28;20077;-46
2024/01/11 00:17:18;;;;;;;34.10;24.30;;;;;;;5.90;100.00;99236.91;5092051;28;20114;-45
2024/01/11 00:19:44;;;;;;;36.60;25.08;;;;;;;6.10;100.00;99240.91;5093492;28;20141;-46
2024/01/11 00:22:10;;;;;;;37.30;25.92;;;;;;;6.12;100.00;99238.97;5092051;28;20405;-46
2024/01/11 00:24:36;;;;;;;42.55;26.92;;;;;;;5.96;100.00;99236.31;5093356;28;20073;-45
2024/01/11 00:27:01;;;;;;;40.00;27.25;;;;;;;5.49;100.00;99240.09;5093216;28;20036;-46
2024/01/11 00:29:28;;;;;;;42.40;29.00;;;;;;;5.07;100.00;99238.22;5093137;28;20012;-46
2024/01/11 00:31:54;;;;;;;48.15;31.80;;;;;;;4.98;100.00;99236.50;5091850;28;20028;-46
2024/01/11 00:34:21;;;;;;;58.88;39.22;;;;;;;5.04;100.00;99233.28;5093218;28;20016;-45
2024/01/11 00:36:47;;;;;;;122.40;96.72;;;;;;;5.18;100.00;99240.56;5092789;28;20040;-45
2024/01/11 00:39:13;;;;;;;47.28;35.10;;;;;;;5.18;100.00;99243.16;5093129;28;20060;-46
2024/01/11 00:41:39;;;;;;;212.10;41.30;;;;;;;4.89;100.00;99240.81;5092957;28;20103;-46
2024/01/11 00:44:05;;;;;;;92.18;68.35;;;;;;;4.79;100.00;99246.09;5092984;28;20048;-45
2024/01/11 00:46:31;;;;;;;77.07;59.95;;;;;;;5.03;100.00;99239.47;5091562;28;20043;-46
2024/01/11 00:48:56;;;;;;;53.90;34.60;;;;;;;5.12;100.00;99237.75;5091579;28;20020;-46
2024/01/11 00:51:22;;;;;;;41.92;27.50;;;;;;;5.15;100.00;99232.22;5091503;28;20028;-46
2024/01/11 00:53:48;;;;;;;39.72;25.30;;;;;;;5.20;100.00;99240.41;5091447;28;20054;-46
2024/01/11 00:56:18;;;;;;;39.60;26.17;;;;;;;5.56;100.00;99235.09;5091308;28;20478;-45
2024/01/11 00:58:43;;;;;;;43.45;27.50;;;;;;;5.80;100.00;99232.63;5092693;28;20393;-46
2024/01/11 01:01:09;;;;;;;42.50;27.20;;;;;;;5.87;100.00;99242.41;5092622;28;20095;-46
2024/01/11 01:03:35;;;;;;;72.13;58.22;;;;;;;5.89;100.00;99245.69;5092175;28;20028;-46
2024/01/11 01:06:01;;;;;;;41.97;28.63;;;;;;;6.10;100.00;99248.72;5092546;28;20106;-46
2024/01/11 01:08:28;;;;;;;43.50;28.00;;;;;;;6.25;100.00;99246.31;5091240;28;20079;-46
2024/01/11 01:10:54;;;;;;;37.90;27.23;;;;;;;6.32;100.00;99249.94;5091223;28;20493;-46
2024/01/11 01:13:20;;;;;;;43.33;29.35;;;;;;;6.30;100.00;99254.50;5092500;28;20494;-45
2024/01/11 01:15:46;;;;;;;39.90;27.85;;;;;;;6.38;100.00;99251.91;5074151;28;20077;-46
2024/01/11 01:18:11;;;;;;;44.90;30.33;;;;;;;6.44;100.00;99247.03;5092430;28;20038;-45
2024/01/11 01:20:37;;;;;;;42.40;28.83;;;;;;;6.50;100.00;99244.59;5092288;28;20066;-46
2024/01/11 01:23:03;;;;;;;42.15;30.75;;;;;;;6.67;100.00;99245.44;5092279;28;20081;-46
2024/01/11 01:25:29;;;;;;;40.65;28.48;;;;;;;6.70;100.00;99250.34;5090933;28;20463;-45
2024/01/11 01:27:55;;;;;;;81.07;70.95;;;;;;;6.65;100.00;99254.41;5091184;28;20032;-46
2024/01/11 01:30:22;;;;;;;77.38;64.47;;;;;;;6.75;100.00;99257.69;5092195;28;20020;-46
2024/01/11 01:32:48;;;;;;;45.95;32.70;;;;;;;6.85;100.00;99257.53;5092382;28;20077;-46
2024/01/11 01:35:13;;;;;;;41.53;28.70;;;;;;;6.84;100.00;99254.13;5091766;28;20428;-46
2024/01/11 01:37:39;;;;;;;37.60;26.92;;;;;;;6.90;100.00;99261.28;5092097;28;20043;-46
2024/01/11 01:40:07;;;;;;;52.33;39.80;;;;;;;6.94;100.00;99262.59;5092043;28;20418;-45
2024/01/11 01:42:33;;;;;;;40.10;29.35;;;;;;;6.92;100.00;99255.88;5090678;28;20067;-46
2024/01/11 01:44:59;;;;;;;43.58;30.25;;;;;;;6.85;100.00;99263.56;5092038;28;20454;-46
2024/01/11 01:47:26;;;;;;;45.72;31.23;;;;;;;6.79;100.00;99262.41;5090671;28;20051;-46
2024/01/11 01:49:53;;;;;;;47.25;35.20;;;;;;;6.69;100.00;99268.75;5091064;28;20367;-46
2024/01/11 01:52:20;;;;;;;40.58;27.75;;;;;;;6.65;100.00;99262.22;5091942;28;20488;-46
2024/01/11 01:54:47;;;;;;;49.05;29.73;;;;;;;6.58;100.00;99262.88;5090556;28;20047;-46
2024/01/11 01:57:13;;;;;;;51.80;36.60;;;;;;;6.35;100.00;99272.25;5090484;28;20020;-46
2024/01/11 01:59:40;;;;;;;39.95;28.58;;;;;;;6.42;100.00;99268.06;5090516;28;20024;-45
2024/01/11 02:02:06;;;;;;;55.00;42.80;;;;;;;6.56;100.00;99264.00;5107453;28;20020;-46
2024/01/11 02:04:32;;;;;;;42.65;31.40;;;;;;;6.58;100.00;99264.69;5091773;28;20023;-46
2024/01/11 02:06:58;;;;;;;140.15;126.10;;;;;;;6.65;100.00;99268.25;5090423;28;20401;-46
2024/01/11 02:09:24;;;;;;;62.08;48.50;;;;;;;6.74;100.00;99263.84;5092014;28;20032;-46
2024/01/11 02:11:53;;;;;;;48.22;32.92;;;;;;;6.82;100.00;99268.28;5090367;28;20020;-46
2024/01/11 02:14:19;;;;;;;77.07;58.42;;;;;;;6.95;100.00;99260.78;5091678;28;20066;-46
2024/01/11 02:16:45;;;;;;;49.08;35.20;;;;;;;6.95;100.00;99264.22;5092274;28;20038;-46
2024/01/11 02:19:14;;;;;;;45.60;31.25;;;;;;;7.03;100.00;99278.25;5095765;28;20089;-46
2024/01/11 02:21:43;;;;;;;58.15;43.72;;;;;;;6.90;100.00;99269.13;5094387;28;20060;-46
2024/01/11 02:24:09;;;;;;;47.72;32.40;;;;;;;6.79;100.00;99277.25;5094384;28;20028;-46
2024/01/11 02:26:35;;;;;;;60.72;31.00;;;;;;;6.68;100.00;99277.53;5095606;28;20501;-46
2024/01/11 02:29:02;;;;;;;55.92;30.58;;;;;;;6.59;100.00;99274.13;5094317;28;20024;-46
2024/01/11 02:31:28;;;;;;;48.10;31.27;;;;;;;6.44;100.00;99276.53;5095517;28;20378;-46
2024/01/11 02:33:54;;;;;;;51.35;30.77;;;;;;;6.28;100.00;99279.91;5094220;28;20038;-46
2024/01/11 02:36:21;;;;;;;53.35;30.80;;;;;;;6.31;100.00;99286.59;5093822;28;20052;-46
2024/01/11 02:38:48;;;;;;;317.52;49.05;;;;;;;6.15;100.00;99280.34;5095467;28;20038;-46
2024/01/11 02:41:18;;;;;;;68.75;33.47;;;;;;;5.83;100.00;99277.56;5077319;28;20082;-46
2024/01/11 02:43:48;;;;;;;51.85;30.20;;;;;;;5.72;100.00;99283.84;5095307;28;20562;-46
2024/01/11 02:46:17;;;;;;;46.85;29.38;;;;;;;5.74;100.00;99282.72;5093915;28;20036;-45
2024/01/11 02:48:43;;;;;;;45.70;29.33;;;;;;;5.88;100.00;99277.91;5095255;28;20082;-46
2024/01/11 02:51:09;;;;;;;44.17;28.67;;;;;;;5.94;100.00;99274.69;5093860;28;20023;-45
2024/01/11 02:53:35;;;;;;;43.38;27.95;;;;;;;6.13;100.00;99278.88;5095105;28;20020;-46
2024/01/11 02:56:01;;;;;;;44.45;29.10;;;;;;;6.32;100.00;99275.19;5093636;28;20078;-45
2024/01/11 02:58:27;;;;;;;44.45;28.00;;;;;;;6.36;100.00;99276.53;5095302;28;20043;-45
2024/01/11 03:00:53;;;;;;;45.95;30.25;;;;;;;6.38;100.00;99275.38;5094935;28;20486;-45
2024/01/11 03:03:18;;;;;;;51.17;32.50;;;;;;;6.09;100.00;99280.97;5094853;28;20024;-46
2024/01/11 03:05:44;;;;;;;455.20;58.35;;;;;;;5.74;100.00;99276.69;5094874;28;20439;-46
2024/01/11 03:08:10;;;;;;;46.67;30.00;;;;;;;5.67;100.00;99279.09;5093603;28;20493;-46
2024/01/11 03:10:39;;;;;;;50.13;31.75;;;;;;;5.61;100.00;99274.50;5093434;28;20039;-46
2024/01/11 03:13:05;;;;;;;50.65;29.75;;;;;;;5.47;100.00;99272.47;5093435;28;20446;-46
2024/01/11 03:15:31;;;;;;;47.38;29.75;;;;;;;5.40;100.00;99278.28;5093656;28;20401;-46
2024/01/11 03:17:57;;;;;;;51.47;31.92;;;;;;;5.24;100.00;99274.75;5093393;28;20024;-46
2024/01/11 03:20:24;;;;;;;105.93;35.70;;;;;;;4.92;100.00;99266.53;5093281;28;20028;-46
2024/01/11 03:22:53;;;;;;;72.95;31.25;;;;;;;4.72;100.00;99278.03;5094497;28;20520;-46
2024/01/11 03:25:19;;;;;;;427.90;62.80;;;;;;;4.65;100.00;99277.81;5093199;28;20394;-46
2024/01/11 03:27:45;;;;;;;59.17;34.75;;;;;;;4.51;100.00;99276.53;5092905;28;20031;-46
2024/01/11 03:30:12;;;;;;;72.80;37.65;;;;;;;4.63;100.00;99268.50;5093119;28;20074;-46
2024/01/11 03:32:38;;;;;;;71.60;42.40;;;;;;;4.73;100.00;99267.50;5094643;28;20020;-46
2024/01/11 03:35:07;;;;;;;163.15;41.90;;;;;;;4.90;100.00;99272.84;5094282;28;20048;-46
2024/01/11 03:37:33;;;;;;;63.65;36.30;;;;;;;4.85;100.00;99267.25;5092925;28;20401;-46
2024/01/11 03:40:00;;;;;;;78.40;52.67;;;;;;;5.09;100.00;99274.44;5094244;28;20031;-46
2024/01/11 03:42:25;;;;;;;56.13;32.97;;;;;;;5.37;100.00;99270.78;5092883;28;20623;-46
2024/01/11 03:44:51;;;;;;;73.22;48.60;;;;;;;5.48;100.00;99280.13;5092858;28;20122;-46
2024/01/11 03:47:17;;;;;;;56.47;33.85;;;;;;;5.59;100.00;99279.03;5092783;28;20031;-45
2024/01/11 03:49:42;;;;;;;54.63;35.00;;;;;;;5.71;100.00;99274.41;5075885;28;20028;-45
2024/01/11 03:52:08;;;;;;;68.95;44.45;;;;;;;5.83;100.00;99278.38;5092713;28;20028;-45
2024/01/11 03:54:34;;;;;;;63.42;38.50;;;;;;;5.85;100.00;99278.22;5093914;28;20016;-45
2024/01/11 03:56:59;;;;;;;127.00;35.80;;;;;;;5.67;100.00;99278.28;5093868;28;20027;-45
2024/01/11 03:59:25;;;;;;;62.92;37.45;;;;;;;5.48;100.00;99279.31;5093856;28;20386;-44
2024/01/11 04:01:52;;;;;;;130.18;38.13;;;;;;;5.65;100.00;99286.25;5092463;28;20060;-44
2024/01/11 04:04:18;;;;;;;68.63;39.08;;;;;;;5.59;100.00;99281.66;5093833;28;20438;-44
2024/01/11 04:06:44;;;;;;;80.05;45.08;;;;;;;5.61;100.00;99279.69;5093678;28;20079;-44
2024/01/11 04:09:10;;;;;;;85.07;36.72;;;;;;;5.67;100.00;99279.09;5075621;28;20023;-44
2024/01/11 04:11:36;;;;;;;71.72;46.40;;;;;;;5.63;100.00;99275.16;5092320;28;20028;-44
2024/01/11 04:14:02;;;;;;;136.65;30.90;;;;;;;5.68;100.00;99278.13;5093565;28;20472;-45
2024/01/11 04:16:28;;;;;;;178.15;40.10;;;;;;;5.52;100.00;99273.63;5093434;28;20017;-45
2024/01/11 04:18:54;;;;;;;57.22;34.78;;;;;;;5.48;100.00;99279.31;5092281;28;20528;-44
2024/01/11 04:21:28;;;;;;;87.30;34.75;;;;;;;5.54;100.00;99279.50;5092129;28;20077;-44
2024/01/11 04:23:55;;;;;;;98.27;41.07;;;;;;;5.39;100.00;99271.44;5093498;28;20466;-44
2024/01/11 04:26:21;;;;;;;64.78;40.10;;;;;;;5.24;100.00;99285.97;5092026;28;20512;-45
2024/01/11 04:28:47;;;;;;;98.18;71.40;;;;;;;5.36;100.00;99279.56;5091950;28;20046;-44
2024/01/11 04:31:16;;;;;;;84.43;38.60;;;;;;;5.38;100.00;99279.41;5093459;28;20464;-44
2024/01/11 04:33:45;;;;;;;103.22;40.17;;;;;;;5.30;100.00;99282.75;5093286;28;20163;-44
2024/01/11 04:36:12;;;;;;;84.00;39.40;;;;;;;5.19;100.00;99288.19;5092878;28;20071;-45
2024/01/11 04:38:38;;;;;;;71.00;37.65;;;;;;;5.17;100.00;99290.13;5091297;28;20561;-45
2024/01/11 04:41:13;;;;;;;67.25;38.03;;;;;;;5.10;100.00;99294.31;5093149;28;20055;-45
2024/01/11 04:43:43;;;;;;;;;;;;;;;5.12;100.00;99289.78;5093503;28;20069;-45
2024/01/11 04:46:17;;;;;;;152.13;42.40;;;;;;;5.08;100.00;99299.66;5093001;28;20286;-44
2024/01/11 04:48:44;;;;;;;66.47;37.50;;;;;;;4.98;100.00;99299.75;5092879;28;20557;-44
2024/01/11 04:51:10;;;;;;;153.50;41.13;;;;;;;5.03;100.00;99295.88;5093139;28;20433;-44
2024/01/11 04:53:38;;;;;;;64.13;34.58;;;;;;;4.90;100.00;99306.66;5091613;28;20020;-45
2024/01/11 04:56:04;;;;;;;62.97;35.17;;;;;;;5.04;100.00;99307.94;5092711;28;20020;-44
2024/01/11 04:58:29;;;;;;;61.58;31.90;;;;;;;5.40;100.00;99303.50;5091743;28;20114;-45
2024/01/11 05:00:55;;;;;;;71.40;38.83;;;;;;;5.49;100.00;99299.97;5092655;28;20099;-44
2024/01/11 05:03:21;;;;;;;132.00;40.72;;;;;;;5.56;100.00;99297.59;5092939;28;20381;-45
2024/01/11 05:05:46;;;;;;;78.63;42.78;;;;;;;5.52;100.00;99301.47;5092559;28;20020;-45
2024/01/11 05:08:12;;;;;;;109.05;42.33;;;;;;;5.51;100.00;99292.00;5092619;28;20024;-44
2024/01/11 05:10:38;;;;;;;66.85;37.78;;;;;;;5.47;100.00;99293.28;5091141;28;20026;-45
2024/01/11 05:13:04;;;;;;;61.28;36.50;;;;;;;5.44;100.00;99293.59;5091460;28;20114;-45
2024/01/11 05:15:29;;;;;;;74.97;45.08;;;;;;;5.44;100.00;99291.00;5091071;28;20078;-45
2024/01/11 05:17:56;;;;;;;71.18;45.35;;;;;;;5.58;100.00;99287.84;5091116;28;20016;-45
2024/01/11 05:20:22;;;;;;;60.45;36.45;;;;;;;5.84;100.00;99274.81;5091005;28;20020;-45
2024/01/11 05:22:48;;;;;;;60.30;36.13;;;;;;;6.15;100.00;99277.72;5092559;28;20502;-45
2024/01/11 05:25:14;;;;;;;59.80;37.55;;;;;;;6.43;100.00;99277.50;5092264;28;20056;-45
2024/01/11 05:27:40;;;;;;;69.72;40.92;;;;;;;6.57;100.00;99283.91;5090970;28;20035;-44
2024/01/11 05:30:06;;;;;;;56.33;32.85;;;;;;;6.55;100.00;99278.03;5092407;28;20473;-45
2024/01/11 05:32:32;;;;;;;59.78;35.95;;;;;;;6.48;100.00;99283.06;5092431;28;20358;-44
2024/01/11 05:34:58;;;;;;;95.30;39.88;;;;;;;6.46;100.00;99286.78;5090790;28;20086;-45
2024/01/11 05:37:23;;;;;;;80.03;38.28;;;;;;;6.26;100.00;99292.28;5091858;28;20104;-45
2024/01/11 05:39:49;;;;;;;64.55;34.95;;;;;;;6.15;100.00;99289.94;5092051;28;20024;-44
2024/01/11 05:42:15;;;;;;;59.40;33.22;;;;;;;6.20;100.00;99295.53;5090862;28;20128;-45
2024/01/11 05:44:41;;;;;;;62.63;34.90;;;;;;;6.32;100.00;99296.88;5090748;28;20054;-44
2024/01/11 05:47:06;;;;;;;56.33;34.67;;;;;;;6.33;100.00;99300.28;5092202;28;20063;-45
2024/01/11 05:49:32;;;;;;;62.03;35.92;;;;;;;6.34;100.00;99300.13;5090663;28;20020;-44
2024/01/11 05:51:58;;;;;;;61.33;34.47;;;;;;;6.29;100.00;99302.38;5090892;28;20046;-44
2024/01/11 05:54:24;;;;;;;56.55;34.90;;;;;;;6.34;100.00;99302.75;5090564;28;20157;-45
2024/01/11 05:56:52;;;;;;;83.00;57.13;;;;;;;6.34;100.00;99299.31;5090461;28;20490;-45
2024/01/11 05:59:18;;;;;;;81.65;38.17;;;;;;;6.31;100.00;99294.41;5091829;28;20028;-45
2024/01/11 06:01:44;;;;;;;61.20;35.35;;;;;;;5.97;100.00;99293.44;5090425;28;20032;-45
2024/01/11 06:04:10;;;;;;;73.80;40.10;;;;;;;5.90;100.00;99300.22;5090467;28;20110;-44
2024/01/11 06:06:35;;;;;;;75.30;46.35;;;;;;;6.04;100.00;99298.03;5090377;28;20032;-45
2024/01/11 06:09:04;;;;;;;77.88;52.70;;;;;;;6.19;100.00;99289.47;5090458;28;20024;-45
2024/01/11 06:11:30;;;;;;;70.13;43.63;;;;;;;6.26;100.00;99296.66;5090672;28;20110;-45
2024/01/11 06:13:55;;;;;;;61.80;36.97;;;;;;;6.41;100.00;99297.69;5091664;28;20111;-45
2024/01/11 06:16:21;;;;;;;69.82;40.30;;;;;;;6.29;100.00;99302.38;5091608;28;20020;-45
2024/01/11 06:18:47;;;;;;;66.80;39.35;;;;;;;6.28;100.00;99303.38;5091626;28;20023;-45
2024/01/11 06:21:13;;;;;;;64.15;34.20;;;;;;;6.50;100.00;99306.34;5090344;28;20094;-45
2024/01/11 06:23:39;;;;;;;59.75;34.47;;;;;;;6.71;100.00;99313.75;5091536;28;20020;-45
2024/01/11 06:26:04;;;;;;;56.25;32.83;;;;;;;6.59;100.00;99314.03;5091542;28;20031;-45
2024/01/11 06:28:30;;;;;;;57.60;33.72;;;;;;;6.63;100.00;99317.16;5091553;28;20051;-45
2024/01/11 06:30:56;;;;;;;56.70;31.30;;;;;;;6.71;100.00;99316.38;5091574;28;20028;-45
2024/01/11 06:33:22;;;;;;;58.15;33.55;;;;;;;6.74;100.00;99318.63;5090318;28;20063;-45
2024/01/11 06:35:48;;;;;;;58.35;36.05;;;;;;;6.59;100.00;99321.06;5091151;28;20048;-45
2024/01/11 06:38:13;;;;;;;53.25;34.05;;;;;;;6.31;100.00;99323.09;5091426;28;20107;-45
2024/01/11 06:40:39;;;;;;;59.17;31.73;;;;;;;6.26;100.00;99325.31;5091452;28;20024;-44
2024/01/11 06:43:05;;;;;;;52.10;31.88;;;;;;;6.42;100.00;99325.41;5091691;28;20123;-47
2024/01/11 06:45:30;;;;;;;57.80;33.78;;;;;;;6.59;100.00;99319.25;5091383;28;20470;-47
2024/01/11 06:47:56;;;;;;;53.90;33.75;;;;;;;6.79;100.00;99322.41;5091914;28;20039;-46
2024/01/11 06:50:22;;;;;;;55.28;32.60;;;;;;;6.86;100.00;99320.00;5091359;28;20027;-47
2024/01/11 06:52:48;;;;;;;57.83;35.42;;;;;;;6.77;100.00;99328.78;5089992;28;20035;-47
2024/01/11 06:55:14;;;;;;;59.42;33.47;;;;;;;6.62;100.00;99332.97;5089984;28;20574;-47
2024/01/11 06:57:39;;;;;;;63.60;36.22;;;;;;;6.49;100.00;99330.81;5091202;28;20111;-46
2024/01/11 07:00:07;;;;;;;54.65;32.58;;;;;;;6.53;100.00;99332.94;5091258;28;20470;-46
2024/01/11 07:02:33;;;;;;;74.05;48.63;;;;;;;6.24;100.00;99335.94;5092790;28;20039;-47
2024/01/11 07:04:58;;;;;;;65.28;36.47;;;;;;;6.32;100.00;99337.75;5093634;28;20024;-47
2024/01/11 07:07:24;;;;;;;55.10;33.47;;;;;;;6.42;100.00;99335.84;5094872;28;20020;-46
2024/01/11 07:09:50;;;;;;;55.00;33.13;;;;;;;6.56;100.00;99330.03;5094835;28;20016;-46
2024/01/11 07:12:17;;;;;;;55.70;34.60;;;;;;;6.54;100.00;99333.75;5094808;28;20103;-47
2024/01/11 07:14:42;;;;;;;55.63;35.38;;;;;;;6.46;100.00;99331.09;5094779;28;20432;-45
2024/01/11 07:17:08;;;;;;;55.05;35.80;;;;;;;6.46;100.00;99336.31;5093282;28;20051;-45
2024/01/11 07:19:34;;;;;;;64.95;35.47;;;;;;;6.24;100.00;99340.31;5093373;28;20036;-44
2024/01/11 07:21:59;;;;;;;58.15;35.20;;;;;;;5.97;100.00;99347.34;5093315;28;20023;-47
2024/01/11 07:24:25;;;;;;;55.53;34.58;;;;;;;5.89;100.00;99339.44;5094639;28;20020;-46
2024/01/11 07:26:51;;;;;;;57.00;33.45;;;;;;;6.05;100.00;99344.78;5093165;28;20123;-46
2024/01/11 07:29:17;;;;;;;56.60;34.83;;;;;;;6.19;100.00;99346.00;5093431;28;20028;-49
2024/01/11 07:31:43;;;;;;;57.13;33.75;;;;;;;6.32;100.00;99361.22;5094446;28;20052;-46
2024/01/11 07:34:09;;;;;;;387.30;59.05;;;;;;;6.33;100.00;99360.22;5076207;28;20112;-47
2024/01/11 07:36:35;;;;;;;62.55;38.75;;;;;;;6.09;100.00;99360.94;5093845;28;20052;-47
2024/01/11 07:39:00;;;;;;;56.28;36.05;;;;;;;6.05;100.00;99364.81;5094540;28;20028;-46
2024/01/11 07:41:26;;;;;;;53.17;36.22;;;;;;;6.02;100.00;99362.50;5092922;28;20499;-47
2024/01/11 07:43:52;;;;;;;52.67;32.90;;;;;;;5.93;100.00;99367.63;5092928;28;20024;-47
2024/01/11 07:46:18;;;;;;;54.17;34.42;;;;;;;5.79;100.00;99376.84;5092820;28;20028;-46
2024/01/11 07:48:43;;;;;;;54.28;34.10;;;;;;;5.85;100.00;99372.00;5092758;28;20438;-47
2024/01/11 07:51:09;;;;;;;54.38;32.28;;;;;;;5.95;100.00;99372.72;5092712;28;20023;-46
2024/01/11 07:53:35;;;;;;;60.67;35.03;;;;;;;6.05;100.00;99372.63;5094047;28;20016;-44
2024/01/11 07:56:01;;;;;;;53.28;32.10;;;;;;;5.87;100.00;99372.66;5093942;28;20023;-44
2024/01/11 07:58:26;;;;;;;61.47;34.80;;;;;;;5.71;100.00;99371.56;5093906;28;20394;-47
2024/01/11 08:00:52;;;;;;;57.88;31.85;;;;;;;5.80;100.00;99369.84;5093716;28;20081;-47
2024/01/11 08:03:21;;;;;;;55.85;34.40;;;;;;;5.70;100.00;99376.94;5092539;28;20127;-47
2024/01/11 08:05:50;;;;;;;67.25;38.33;;;;;;;5.82;100.00;99372.31;5093725;28;20028;-46
2024/01/11 08:08:16;;;;;;;59.50;31.45;;;;;;;6.07;100.00;99370.69;5093677;28;20050;-46
2024/01/11 08:10:42;;;;;;;59.85;33.28;;;;;;;6.29;100.00;99374.56;5092321;28;20028;-46
2024/01/11 08:13:09;;;;;;;52.75;31.63;;;;;;;6.46;100.00;99372.81;5093113;28;20401;-46
2024/01/11 08:15:35;;;;;;;50.97;29.80;;;;;;;6.44;100.00;99377.38;5075058;28;20085;-47
2024/01/11 08:18:01;;;;;;;51.72;31.00;;;;;;;6.41;100.00;99375.91;5092231;28;20024;-46
2024/01/11 08:20:27;;;;;;;51.05;28.63;;;;;;;6.47;100.00;99372.69;5093428;28;20063;-46
2024/01/11 08:22:53;;;;;;;49.67;27.33;;;;;;;6.49;100.00;99378.56;5093375;28;20035;-46
2024/01/11 08:25:18;;;;;;;47.03;29.42;;;;;;;6.57;100.00;99381.19;5092076;28;20055;-46
2024/01/11 08:27:44;;;;;;;49.00;31.33;;;;;;;6.64;100.00;99370.13;5092013;28;20032;-45
2024/01/11 08:30:12;;;;;;;46.20;29.23;;;;;;;6.64;100.00;99380.56;5091909;28;20020;-45
2024/01/11 08:32:39;;;;;;;184.23;149.00;;;;;;;6.64;100.00;99383.16;5091945;28;20020;-45
2024/01/11 08:35:06;;;;;;;92.82;60.75;;;;;;;6.66;100.00;99386.44;5092083;28;20080;-44
2024/01/11 08:37:32;;;;;;;55.50;36.28;;;;;;;6.64;100.00;99396.22;5092866;28;20494;-44
2024/01/11 08:39:58;;;;;;;70.53;33.35;;;;;;;6.68;100.00;99402.75;5093412;28;20205;-46
2024/01/11 08:42:23;;;;;;;56.67;30.10;;;;;;;6.69;100.00;99399.19;5091739;28;20489;-47
2024/01/11 08:44:49;;;;;;;63.15;31.42;;;;;;;6.44;100.00;99416.50;5091689;28;20085;-46
2024/01/11 08:47:15;;;;;;;44.15;25.58;;;;;;;6.29;100.00;99421.47;5091688;28;20035;-47
2024/01/11 08:49:41;;;;;;;47.65;32.42;;;;;;;6.05;100.00;99425.56;5092825;28;20531;-46
2024/01/11 08:52:08;;;;;;;43.55;27.52;;;;;;;5.89;100.00;99430.63;5093208;28;20042;-47
2024/01/11 08:54:33;;;;;;;47.85;28.45;;;;;;;5.91;100.00;99426.09;5091547;28;20059;-46
2024/01/11 08:56:59;;;;;;;43.60;27.67;;;;;;;6.04;100.00;99428.31;5091405;28;20125;-46
2024/01/11 08:59:25;;;;;;;41.45;26.92;;;;;;;6.08;100.00;99422.66;5092787;28;20035;-46
2024/01/11 09:01:54;;;;;;;47.35;27.17;;;;;;;6.06;100.00;99431.59;5091382;28;20030;-46
2024/01/11 09:04:20;;;;;;;48.33;27.13;;;;;;;6.06;100.00;99432.41;5091659;28;20043;-47
2024/01/11 09:06:45;;;;;;;40.00;24.23;;;;;;;6.13;100.00;99432.63;5092561;28;20036;-47
2024/01/11 09:09:15;;;;;;;38.80;26.35;;;;;;;6.17;100.00;99437.34;5091327;28;20077;-46
2024/01/11 09:11:41;;;;;;;43.28;26.00;;;;;;;6.18;100.00;99446.81;5091243;28;20405;-46
2024/01/11 09:14:07;;;;;;;40.20;27.35;;;;;;;6.17;100.00;99455.59;5091225;28;20036;-46
2024/01/11 09:16:33;;;;;;;40.67;25.92;;;;;;;6.14;100.00;99450.72;5092652;28;20366;-47
2024/01/11 09:19:01;;;;;;;41.45;25.00;;;;;;;6.09;100.00;99455.56;5092488;28;20031;-46
2024/01/11 09:21:27;;;;;;;38.08;24.30;;;;;;;6.11;100.00;99461.44;5092413;28;20016;-47
2024/01/11 09:23:53;;;;;;;34.45;24.23;;;;;;;6.20;100.00;99460.53;5092570;28;20028;-47
2024/01/11 09:26:19;;;;;;;42.80;26.17;;;;;;;6.25;100.00;99460.06;5092041;28;20545;-46
2024/01/11 09:28:45;;;;;;;39.60;25.13;;;;;;;6.23;100.00;99463.78;5092285;28;20059;-47
2024/01/11 09:31:11;;;;;;;40.88;25.02;;;;;;;6.25;100.00;99456.63;5092244;28;20524;-47
2024/01/11 09:33:38;;;;;;;38.40;25.25;;;;;;;6.43;100.00;99452.19;5092275;28;20031;-47
2024/01/11 09:36:04;;;;;;;39.15;25.10;;;;;;;6.56;100.00;99457.81;5090654;28;20398;-47
2024/01/11 09:38:30;;;;;;;35.58;24.48;;;;;;;6.55;100.00;99461.38;5092143;28;20026;-47
2024/01/11 09:41:10;;;;;;;40.05;23.35;;;;;;;6.52;100.00;99458.25;5090739;28;20028;-47
2024/01/11 09:43:36;;;;;;;32.15;22.55;;;;;;;6.59;100.00;99457.47;5092098;28;20025;-47
2024/01/11 09:46:06;;;;;;;39.22;25.10;;;;;;;6.63;100.00;99450.16;5092040;28;20035;-47
2024/01/11 09:48:34;;;;;;;38.28;24.73;;;;;;;6.65;100.00;99456.03;5090717;28;20111;-47
2024/01/11 09:51:05;;;;;;;40.55;24.05;;;;;;;6.55;100.00;99458.75;5090683;28;20031;-48
2024/01/11 09:53:32;;;;;;;44.00;23.10;;;;;;;6.64;100.00;99459.66;5092041;28;20023;-45
2024/01/11 09:56:04;;;;;;;46.95;32.80;;;;;;;6.57;100.00;99458.63;5091874;28;20074;-47
2024/01/11 09:58:29;;;;;;;39.38;27.58;;;;;;;6.66;100.00;99456.84;5107607;28;20393;-48
2024/01/11 10:00:58;;;;;;;39.63;26.02;;;;;;;6.62;100.00;99456.38;5091836;28;20032;-48
2024/01/11 10:03:25;;;;;;;38.95;23.92;;;;;;;6.70;100.00;99456.41;5091713;28;20489;-48
2024/01/11 10:05:57;;;;;;;43.05;27.40;;;;;;;6.87;100.00;99462.50;5091680;28;20035;-48
2024/01/11 10:08:23;;;;;;;44.78;29.15;;;;;;;6.93;100.00;99456.66;5091874;28;20107;-48
2024/01/11 10:10:49;;;;;;;57.10;34.30;;;;;;;6.73;100.00;99461.28;5090391;28;20111;-47
2024/01/11 10:13:18;;;;;;;45.80;29.45;;;;;;;6.75;100.00;99464.56;5091781;28;20545;-48
2024/01/11 10:15:44;;;;;;;52.67;30.35;;;;;;;6.87;100.00;99464.31;5091649;28;20027;-48
2024/01/11 10:18:10;;;;;;;46.90;27.95;;;;;;;6.96;100.00;99456.34;5090385;28;20021;-49
2024/01/11 10:20:36;;;;;;;53.05;31.33;;;;;;;6.86;100.00;99466.09;5091597;28;20025;-48
2024/01/11 10:23:03;;;;;;;46.00;28.92;;;;;;;6.94;100.00;99457.47;5091696;28;20054;-48
2024/01/11 10:25:29;;;;;;;50.35;30.23;;;;;;;7.02;100.00;99451.47;5090302;28;20028;-48
2024/01/11 10:27:55;;;;;;;41.65;26.98;;;;;;;7.17;100.00;99457.72;5091611;28;20030;-48
2024/01/11 10:30:23;;;;;;;43.15;30.02;;;;;;;7.44;100.00;99451.41;5090263;28;20039;-46
2024/01/11 10:32:49;;;;;;;47.95;29.98;;;;;;;7.47;100.00;99458.91;5091615;28;20111;-46
2024/01/11 10:35:18;;;;;;;43.03;27.85;;;;;;;7.25;100.00;99456.94;5090202;28;20020;-46
2024/01/11 10:37:44;;;;;;;52.92;29.95;;;;;;;7.14;100.00;99458.84;5093128;28;20051;-48
2024/01/11 10:40:14;;;;;;;43.42;26.85;;;;;;;7.07;100.00;99449.19;5094140;28;20367;-48
2024/01/11 10:42:49;;;;;;;51.05;27.95;;;;;;;7.13;100.00;99459.81;5095359;28;20039;-49
2024/01/11 10:45:19;;;;;;;40.28;24.92;;;;;;;6.91;100.00;99453.38;5095419;28;20070;-49
2024/01/11 10:48:07;;;;;;;45.38;26.70;;;;;;;6.92;100.00;99454.19;5095561;28;20080;-49
2024/01/11 10:50:41;;;;;;;41.65;25.70;;;;;;;7.15;100.00;99454.44;5094154;28;20031;-49
2024/01/11 10:53:40;;;;;;;44.85;30.02;;;;;;;7.20;100.00;99457.38;5093949;28;20358;-49
2024/01/11 10:56:09;;;;;;;69.15;44.08;;;;;;;7.20;100.00;99453.00;5095073;28;20478;-48
2024/01/11 10:58:35;;;;;;;76.03;54.55;;;;;;;7.26;100.00;99448.91;5093795;28;20035;-48
2024/01/11 11:01:04;;;;;;;64.55;37.38;;;;;;;7.27;100.00;99455.78;5095051;28;20031;-49
2024/01/11 11:03:34;;;;;;;44.97;25.48;;;;;;;7.36;100.00;99457.44;5093755;28;20020;-46
2024/01/11 11:06:00;;;;;;;49.50;31.23;;;;;;;7.39;100.00;99454.50;5094989;28;20028;-46
2024/01/11 11:08:27;;;;;;;58.92;41.03;;;;;;;7.28;100.00;99457.41;5094953;28;20027;-46
2024/01/11 11:10:58;;;;;;;37.95;25.50;;;;;;;7.19;100.00;99453.16;5094790;28;20039;-46
2024/01/11 11:13:24;;;;;;;36.53;23.45;;;;;;;7.20;100.00;99454.78;5093470;28;20132;-49